sensor_id;sensor_type;location;lat;lon;timestamp;pressure;altitude;pressure_sealevel;temperature;humidity
71107;BME280;58763;47.982;11.516;2022-10-16T00:00:32;94245.41;;;13.51;84.66
71107;BME280;58763;47.982;11.516;2022-10-16T00:02:58;94233.34;;;13.44;84.42
71107;BME280;58763;47.982;11.516;2022-10-16T00:05:24;94229.59;;;13.40;84.73
71107;BME280;58763;47.982;11.516;2022-10-16T00:07:49;94229.41;;;13.36;84.97
71107;BME280;58763;47.982;11.516;2022-10-16T00:10:15;94233.13;;;13.27;84.61
71107;BME280;58763;47.982;11.516;2022-10-16T00:12:40;94244.22;;;13.30;84.77
71107;BME280;58763;47.982;11.516;2022-10-16T00:15:06;94240.97;;;13.28;84.66
71107;BME280;58763;47.982;11.516;2022-10-16T00:17:32;94254.44;;;13.33;84.44
71107;BME280;58763;47.982;11.516;2022-10-16T00:19:58;94259.78;;;13.38;84.27
71107;BME280;58763;47.982;11.516;2022-10-16T00:22:23;94251.66;;;13.38;83.75
71107;BME280;58763;47.982;11.516;2022-10-16T00:24:49;94246.44;;;13.42;83.46
71107;BME280;58763;47.982;11.516;2022-10-16T00:27:15;94254.66;;;13.37;84.15
71107;BME280;58763;47.982;11.516;2022-10-16T00:29:42;94246.94;;;13.30;84.14
71107;BME280;58763;47.982;11.516;2022-10-16T00:32:07;94242.91;;;13.28;84.62
71107;BME280;58763;47.982;11.516;2022-10-16T00:34:33;94250.50;;;13.12;85.66
71107;BME280;58763;47.982;11.516;2022-10-16T00:36:58;94247.78;;;13.12;86.12
71107;BME280;58763;47.982;11.516;2022-10-16T00:39:24;94246.69;;;13.13;85.96
71107;BME280;58763;47.982;11.516;2022-10-16T00:41:50;94246.28;;;13.06;85.97
71107;BME280;58763;47.982;11.516;2022-10-16T00:45:07;94248.19;;;13.05;86.30
71107;BME280;58763;47.982;11.516;2022-10-16T00:47:29;94252.00;;;13.04;86.24
71107;BME280;58763;47.982;11.516;2022-10-16T00:50:04;94252.44;;;12.93;86.64
71107;BME280;58763;47.982;11.516;2022-10-16T00:52:32;94254.56;;;12.96;87.31
71107;BME280;58763;47.982;11.516;2022-10-16T00:54:58;94248.31;;;12.95;87.14
71107;BME280;58763;47.982;11.516;2022-10-16T00:57:24;94252.97;;;12.95;87.06
71107;BME280;58763;47.982;11.516;2022-10-16T00:59:50;94247.31;;;12.91;87.81
71107;BME280;58763;47.982;11.516;2022-10-16T01:02:16;94248.84;;;12.97;87.24
71107;BME280;58763;47.982;11.516;2022-10-16T01:04:53;94252.00;;;13.04;87.07
71107;BME280;58763;47.982;11.516;2022-10-16T01:10:28;94249.88;;;13.01;87.25
71107;BME280;58763;47.982;11.516;2022-10-16T01:13:00;94256.38;;;13.00;87.19
71107;BME280;58763;47.982;11.516;2022-10-16T01:15:56;94259.59;;;13.02;86.42
71107;BME280;58763;47.982;11.516;2022-10-16T01:21:04;94269.34;;;13.22;85.48
71107;BME280;58763;47.982;11.516;2022-10-16T01:29:56;94272.13;;;13.17;84.95
71107;BME280;58763;47.982;11.516;2022-10-16T01:32:33;94263.63;;;13.05;84.93
71107;BME280;58763;47.982;11.516;2022-10-16T01:35:15;94266.88;;;13.07;85.61
71107;BME280;58763;47.982;11.516;2022-10-16T01:37:55;94270.19;;;13.04;84.74
71107;BME280;58763;47.982;11.516;2022-10-16T01:40:26;94266.66;;;13.03;85.37
71107;BME280;58763;47.982;11.516;2022-10-16T01:42:57;94270.91;;;13.09;84.71
71107;BME280;58763;47.982;11.516;2022-10-16T01:45:24;94266.00;;;13.11;84.38
71107;BME280;58763;47.982;11.516;2022-10-16T01:47:52;94266.09;;;13.06;84.15
71107;BME280;58763;47.982;11.516;2022-10-16T01:50:20;94270.13;;;13.09;84.07
71107;BME280;58763;47.982;11.516;2022-10-16T01:52:50;94274.75;;;13.08;83.58
71107;BME280;58763;47.982;11.516;2022-10-16T01:55:22;94268.34;;;12.99;84.06
71107;BME280;58763;47.982;11.516;2022-10-16T01:57:51;94270.03;;;12.95;84.62
71107;BME280;58763;47.982;11.516;2022-10-16T02:00:20;94269.53;;;12.93;85.21
71107;BME280;58763;47.982;11.516;2022-10-16T02:02:49;94269.53;;;12.93;84.91
71107;BME280;58763;47.982;11.516;2022-10-16T02:05:21;94265.81;;;12.89;85.29
71107;BME280;58763;47.982;11.516;2022-10-16T02:07:49;94262.75;;;12.77;85.83
71107;BME280;58763;47.982;11.516;2022-10-16T02:10:15;94259.97;;;12.82;85.73
71107;BME280;58763;47.982;11.516;2022-10-16T02:12:45;94256.50;;;12.77;85.67
71107;BME280;58763;47.982;11.516;2022-10-16T02:15:13;94263.94;;;12.71;85.85
71107;BME280;58763;47.982;11.516;2022-10-16T02:17:39;94254.69;;;12.72;85.50
71107;BME280;58763;47.982;11.516;2022-10-16T02:20:04;94254.66;;;12.59;86.18
71107;BME280;58763;47.982;11.516;2022-10-16T02:22:38;94256.69;;;12.67;86.26
71107;BME280;58763;47.982;11.516;2022-10-16T02:25:10;94261.63;;;12.65;85.76
71107;BME280;58763;47.982;11.516;2022-10-16T02:27:47;94259.00;;;12.60;85.64
71107;BME280;58763;47.982;11.516;2022-10-16T02:33:02;94259.81;;;12.60;85.46
71107;BME280;58763;47.982;11.516;2022-10-16T02:35:30;94269.53;;;12.61;85.68
71107;BME280;58763;47.982;11.516;2022-10-16T02:37:56;94258.38;;;12.63;85.04
71107;BME280;58763;47.982;11.516;2022-10-16T02:40:23;94268.00;;;12.55;85.53
71107;BME280;58763;47.982;11.516;2022-10-16T02:42:51;94269.47;;;12.66;84.69
71107;BME280;58763;47.982;11.516;2022-10-16T02:45:18;94269.47;;;12.66;84.84
71107;BME280;58763;47.982;11.516;2022-10-16T02:47:44;94265.84;;;12.71;84.11
71107;BME280;58763;47.982;11.516;2022-10-16T02:50:09;94264.34;;;12.65;84.57
71107;BME280;58763;47.982;11.516;2022-10-16T02:52:35;94273.50;;;12.69;84.28
71107;BME280;58763;47.982;11.516;2022-10-16T02:55:01;94271.16;;;12.62;84.47
71107;BME280;58763;47.982;11.516;2022-10-16T02:57:27;94273.75;;;12.67;84.47
71107;BME280;58763;47.982;11.516;2022-10-16T02:59:52;94277.00;;;12.69;84.35
71107;BME280;58763;47.982;11.516;2022-10-16T03:02:18;94288.06;;;12.73;83.61
71107;BME280;58763;47.982;11.516;2022-10-16T03:04:43;94283.03;;;12.66;83.34
71107;BME280;58763;47.982;11.516;2022-10-16T03:07:09;94285.84;;;12.75;83.54
71107;BME280;58763;47.982;11.516;2022-10-16T03:09:34;94272.22;;;12.80;83.13
71107;BME280;58763;47.982;11.516;2022-10-16T03:12:00;94269.38;;;12.71;83.22
71107;BME280;58763;47.982;11.516;2022-10-16T03:14:25;94273.56;;;12.64;82.78
71107;BME280;58763;47.982;11.516;2022-10-16T03:16:51;94265.31;;;12.55;83.19
71107;BME280;58763;47.982;11.516;2022-10-16T03:19:17;94262.16;;;12.48;83.08
71107;BME280;58763;47.982;11.516;2022-10-16T03:21:43;94267.50;;;12.53;83.68
71107;BME280;58763;47.982;11.516;2022-10-16T03:24:09;94271.69;;;12.45;83.92
71107;BME280;58763;47.982;11.516;2022-10-16T03:26:34;94279.00;;;12.45;84.11
71107;BME280;58763;47.982;11.516;2022-10-16T03:29:00;94284.13;;;12.46;84.06
71107;BME280;58763;47.982;11.516;2022-10-16T03:31:27;94294.19;;;12.46;83.82
71107;BME280;58763;47.982;11.516;2022-10-16T03:33:53;94291.75;;;12.44;84.26
71107;BME280;58763;47.982;11.516;2022-10-16T03:36:18;94296.22;;;12.54;83.38
71107;BME280;58763;47.982;11.516;2022-10-16T03:38:44;94290.88;;;12.49;83.81
71107;BME280;58763;47.982;11.516;2022-10-16T03:41:10;94294.31;;;12.55;84.01
71107;BME280;58763;47.982;11.516;2022-10-16T03:43:35;94300.84;;;12.54;84.30
71107;BME280;58763;47.982;11.516;2022-10-16T03:46:01;94296.31;;;12.49;84.48
71107;BME280;58763;47.982;11.516;2022-10-16T03:48:26;94284.63;;;12.48;84.88
71107;BME280;58763;47.982;11.516;2022-10-16T03:50:52;94291.91;;;12.53;84.64
71107;BME280;58763;47.982;11.516;2022-10-16T03:53:18;94287.78;;;12.56;84.55
71107;BME280;58763;47.982;11.516;2022-10-16T03:55:44;94289.25;;;12.67;83.97
71107;BME280;58763;47.982;11.516;2022-10-16T03:58:10;94287.88;;;12.69;84.04
71107;BME280;58763;47.982;11.516;2022-10-16T04:00:43;94286.25;;;12.68;84.22
71107;BME280;58763;47.982;11.516;2022-10-16T04:03:09;94282.59;;;12.59;84.63
71107;BME280;58763;47.982;11.516;2022-10-16T04:05:34;94288.53;;;12.61;84.10
71107;BME280;58763;47.982;11.516;2022-10-16T04:08:00;94276.28;;;12.64;84.44
71107;BME280;58763;47.982;11.516;2022-10-16T04:10:26;94268.13;;;12.64;84.57
71107;BME280;58763;47.982;11.516;2022-10-16T04:12:51;94271.75;;;12.59;84.27
71107;BME280;58763;47.982;11.516;2022-10-16T04:15:20;94280.00;;;12.68;84.09
71107;BME280;58763;47.982;11.516;2022-10-16T04:17:45;94283.53;;;12.68;83.56
71107;BME280;58763;47.982;11.516;2022-10-16T04:20:11;94279.94;;;12.73;83.67
71107;BME280;58763;47.982;11.516;2022-10-16T04:22:36;94278.09;;;12.68;83.59
71107;BME280;58763;47.982;11.516;2022-10-16T04:25:02;94286.31;;;12.63;84.04
71107;BME280;58763;47.982;11.516;2022-10-16T04:27:27;94286.66;;;12.75;83.70
71107;BME280;58763;47.982;11.516;2022-10-16T04:29:53;94285.47;;;12.81;83.01
71107;BME280;58763;47.982;11.516;2022-10-16T04:32:19;94286.59;;;12.80;82.96
71107;BME280;58763;47.982;11.516;2022-10-16T04:34:44;94282.63;;;12.73;83.13
71107;BME280;58763;47.982;11.516;2022-10-16T04:37:10;94291.66;;;12.68;83.65
71107;BME280;58763;47.982;11.516;2022-10-16T04:39:35;94286.16;;;12.73;83.61
71107;BME280;58763;47.982;11.516;2022-10-16T04:42:01;94294.31;;;12.73;83.14
71107;BME280;58763;47.982;11.516;2022-10-16T04:44:27;94290.66;;;12.64;83.21
71107;BME280;58763;47.982;11.516;2022-10-16T04:46:53;94284.13;;;12.65;83.38
71107;BME280;58763;47.982;11.516;2022-10-16T04:49:18;94277.53;;;12.71;83.33
71107;BME280;58763;47.982;11.516;2022-10-16T04:51:44;94277.59;;;12.66;82.89
71107;BME280;58763;47.982;11.516;2022-10-16T04:54:10;94280.88;;;12.63;83.74
71107;BME280;58763;47.982;11.516;2022-10-16T04:56:35;94285.16;;;12.69;83.49
71107;BME280;58763;47.982;11.516;2022-10-16T04:59:09;94284.69;;;12.81;82.81
71107;BME280;58763;47.982;11.516;2022-10-16T05:01:35;94284.31;;;12.87;82.23
71107;BME280;58763;47.982;11.516;2022-10-16T05:04:00;94282.41;;;12.88;81.75
71107;BME280;58763;47.982;11.516;2022-10-16T05:06:26;94286.63;;;12.94;82.03
71107;BME280;58763;47.982;11.516;2022-10-16T05:08:52;94283.91;;;12.94;82.10
71107;BME280;58763;47.982;11.516;2022-10-16T05:11:17;94276.00;;;12.97;81.90
71107;BME280;58763;47.982;11.516;2022-10-16T05:13:43;94270.34;;;12.94;81.72
71107;BME280;58763;47.982;11.516;2022-10-16T05:16:08;94281.78;;;12.91;82.24
71107;BME280;58763;47.982;11.516;2022-10-16T05:18:34;94285.75;;;12.98;81.68
71107;BME280;58763;47.982;11.516;2022-10-16T05:21:00;94291.09;;;13.03;81.57
71107;BME280;58763;47.982;11.516;2022-10-16T05:23:25;94293.03;;;13.16;80.80
71107;BME280;58763;47.982;11.516;2022-10-16T05:25:55;94287.00;;;13.06;80.89
71107;BME280;58763;47.982;11.516;2022-10-16T05:28:27;94283.47;;;13.05;81.36
71107;BME280;58763;47.982;11.516;2022-10-16T05:30:53;94289.81;;;13.14;80.53
71107;BME280;58763;47.982;11.516;2022-10-16T05:33:23;94291.44;;;13.15;80.50
71107;BME280;58763;47.982;11.516;2022-10-16T05:35:49;94289.44;;;13.21;80.06
71107;BME280;58763;47.982;11.516;2022-10-16T05:38:15;94306.94;;;13.15;80.05
71107;BME280;58763;47.982;11.516;2022-10-16T05:40:41;94305.19;;;13.05;80.30
71107;BME280;58763;47.982;11.516;2022-10-16T05:43:07;94307.38;;;13.03;80.33
71107;BME280;58763;47.982;11.516;2022-10-16T05:45:32;94311.72;;;13.04;80.65
71107;BME280;58763;47.982;11.516;2022-10-16T05:47:59;94312.50;;;13.05;80.58
71107;BME280;58763;47.982;11.516;2022-10-16T05:50:25;94325.94;;;12.96;80.78
71107;BME280;58763;47.982;11.516;2022-10-16T05:52:51;94319.59;;;12.87;80.78
71107;BME280;58763;47.982;11.516;2022-10-16T05:55:16;94316.94;;;12.82;81.24
71107;BME280;58763;47.982;11.516;2022-10-16T05:57:42;94327.88;;;12.77;81.68
71107;BME280;58763;47.982;11.516;2022-10-16T06:00:08;94326.88;;;12.73;81.63
71107;BME280;58763;47.982;11.516;2022-10-16T06:02:33;94327.25;;;12.67;81.60
71107;BME280;58763;47.982;11.516;2022-10-16T06:04:59;94330.09;;;12.75;81.66
71107;BME280;58763;47.982;11.516;2022-10-16T06:07:24;94323.19;;;12.83;81.41
71107;BME280;58763;47.982;11.516;2022-10-16T06:09:51;94331.59;;;12.81;81.20
71107;BME280;58763;47.982;11.516;2022-10-16T06:12:17;94335.50;;;12.75;82.23
71107;BME280;58763;47.982;11.516;2022-10-16T06:14:43;94335.31;;;12.72;82.66
71107;BME280;58763;47.982;11.516;2022-10-16T06:17:08;94332.94;;;12.65;83.17
71107;BME280;58763;47.982;11.516;2022-10-16T06:19:34;94331.41;;;12.78;83.20
71107;BME280;58763;47.982;11.516;2022-10-16T06:22:00;94338.06;;;12.85;82.38
71107;BME280;58763;47.982;11.516;2022-10-16T06:24:27;94345.72;;;12.83;82.77
71107;BME280;58763;47.982;11.516;2022-10-16T06:26:53;94349.75;;;12.86;82.96
71107;BME280;58763;47.982;11.516;2022-10-16T06:29:18;94347.75;;;12.91;82.62
71107;BME280;58763;47.982;11.516;2022-10-16T06:31:44;94348.41;;;13.02;82.38
71107;BME280;58763;47.982;11.516;2022-10-16T06:34:10;94349.56;;;13.14;82.60
71107;BME280;58763;47.982;11.516;2022-10-16T06:36:37;94355.41;;;13.22;82.10
71107;BME280;58763;47.982;11.516;2022-10-16T06:39:04;94361.22;;;13.15;81.71
71107;BME280;58763;47.982;11.516;2022-10-16T06:41:30;94348.75;;;13.14;81.28
71107;BME280;58763;47.982;11.516;2022-10-16T06:43:56;94353.09;;;13.15;81.36
71107;BME280;58763;47.982;11.516;2022-10-16T06:46:23;94355.84;;;13.29;81.72
71107;BME280;58763;47.982;11.516;2022-10-16T06:48:50;94355.16;;;13.37;80.98
71107;BME280;58763;47.982;11.516;2022-10-16T06:51:17;94372.03;;;13.34;80.61
71107;BME280;58763;47.982;11.516;2022-10-16T06:53:46;94372.78;;;13.39;80.72
71107;BME280;58763;47.982;11.516;2022-10-16T06:58:42;94384.84;;;13.47;81.29
71107;BME280;58763;47.982;11.516;2022-10-16T07:01:09;94385.66;;;13.47;81.76
71107;BME280;58763;47.982;11.516;2022-10-16T07:03:39;94390.53;;;13.64;81.00
71107;BME280;58763;47.982;11.516;2022-10-16T07:06:06;94398.19;;;13.75;80.39
71107;BME280;58763;47.982;11.516;2022-10-16T07:08:34;94395.09;;;13.82;80.45
71107;BME280;58763;47.982;11.516;2022-10-16T07:11:07;94401.34;;;13.82;80.21
71107;BME280;58763;47.982;11.516;2022-10-16T07:13:34;94397.72;;;13.87;81.69
71107;BME280;58763;47.982;11.516;2022-10-16T07:16:10;94409.91;;;14.03;82.11
71107;BME280;58763;47.982;11.516;2022-10-16T07:18:36;94396.94;;;14.14;80.44
71107;BME280;58763;47.982;11.516;2022-10-16T07:21:05;94401.88;;;14.25;79.94
71107;BME280;58763;47.982;11.516;2022-10-16T07:23:31;94404.53;;;14.30;79.23
71107;BME280;58763;47.982;11.516;2022-10-16T07:25:57;94407.75;;;14.32;78.80
71107;BME280;58763;47.982;11.516;2022-10-16T07:28:22;94407.00;;;14.40;77.88
71107;BME280;58763;47.982;11.516;2022-10-16T07:30:48;94411.25;;;14.46;77.33
71107;BME280;58763;47.982;11.516;2022-10-16T07:33:13;94420.59;;;14.54;77.39
71107;BME280;58763;47.982;11.516;2022-10-16T07:35:51;94420.00;;;14.57;77.23
71107;BME280;58763;47.982;11.516;2022-10-16T07:38:17;94426.84;;;14.54;76.29
71107;BME280;58763;47.982;11.516;2022-10-16T07:40:43;94436.16;;;14.53;76.73
71107;BME280;58763;47.982;11.516;2022-10-16T07:43:09;94429.88;;;14.53;76.47
71107;BME280;58763;47.982;11.516;2022-10-16T07:45:34;94440.16;;;14.42;76.76
71107;BME280;58763;47.982;11.516;2022-10-16T07:48:00;94442.88;;;14.42;77.83
71107;BME280;58763;47.982;11.516;2022-10-16T07:50:25;94445.81;;;14.46;78.71
71107;BME280;58763;47.982;11.516;2022-10-16T07:52:51;94450.44;;;14.45;78.19
71107;BME280;58763;47.982;11.516;2022-10-16T07:55:17;94444.00;;;14.55;79.01
71107;BME280;58763;47.982;11.516;2022-10-16T07:57:42;94447.81;;;14.68;78.34
71107;BME280;58763;47.982;11.516;2022-10-16T08:00:08;94448.63;;;14.82;79.90
71107;BME280;58763;47.982;11.516;2022-10-16T08:02:39;94451.47;;;14.99;79.87
71107;BME280;58763;47.982;11.516;2022-10-16T08:05:05;94449.41;;;15.18;79.49
71107;BME280;58763;47.982;11.516;2022-10-16T08:07:31;94458.16;;;15.29;78.81
71107;BME280;58763;47.982;11.516;2022-10-16T08:09:57;94455.94;;;15.44;78.05
71107;BME280;58763;47.982;11.516;2022-10-16T08:12:25;94456.34;;;15.60;75.37
71107;BME280;58763;47.982;11.516;2022-10-16T08:14:51;94457.28;;;15.77;76.23
71107;BME280;58763;47.982;11.516;2022-10-16T08:17:16;94452.56;;;15.92;74.41
71107;BME280;58763;47.982;11.516;2022-10-16T08:19:46;94455.25;;;16.14;75.17
71107;BME280;58763;47.982;11.516;2022-10-16T08:22:13;94457.44;;;16.34;74.71
71107;BME280;58763;47.982;11.516;2022-10-16T08:24:38;94463.47;;;16.53;73.95
71107;BME280;58763;47.982;11.516;2022-10-16T08:27:04;94460.97;;;16.74;72.47
71107;BME280;58763;47.982;11.516;2022-10-16T08:29:30;94469.72;;;17.01;73.17
71107;BME280;58763;47.982;11.516;2022-10-16T08:31:55;94472.16;;;17.11;70.94
71107;BME280;58763;47.982;11.516;2022-10-16T08:34:21;94465.09;;;17.19;69.61
71107;BME280;58763;47.982;11.516;2022-10-16T08:36:46;94460.13;;;17.21;69.51
71107;BME280;58763;47.982;11.516;2022-10-16T08:39:12;94471.38;;;17.37;69.79
71107;BME280;58763;47.982;11.516;2022-10-16T08:47:45;94471.69;;;18.12;68.85
71107;BME280;58763;47.982;11.516;2022-10-16T08:50:21;94476.03;;;18.22;65.48
71107;BME280;58763;47.982;11.516;2022-10-16T08:52:48;94476.00;;;18.30;66.48
71107;BME280;58763;47.982;11.516;2022-10-16T08:55:37;94485.91;;;18.60;66.98
71107;BME280;58763;47.982;11.516;2022-10-16T08:58:27;94493.88;;;18.83;66.55
71107;BME280;58763;47.982;11.516;2022-10-16T09:00:56;94494.59;;;19.00;65.78
71107;BME280;58763;47.982;11.516;2022-10-16T09:03:43;94498.09;;;19.09;65.95
71107;BME280;58763;47.982;11.516;2022-10-16T09:11:48;94504.88;;;19.41;63.34
71107;BME280;58763;47.982;11.516;2022-10-16T09:16:59;94514.94;;;19.58;64.71
71107;BME280;58763;47.982;11.516;2022-10-16T09:19:31;94516.13;;;19.69;63.26
71107;BME280;58763;47.982;11.516;2022-10-16T09:22:10;94517.22;;;19.76;63.17
71107;BME280;58763;47.982;11.516;2022-10-16T09:24:37;94517.06;;;19.93;62.15
71107;BME280;58763;47.982;11.516;2022-10-16T09:27:03;94516.19;;;20.02;64.28
71107;BME280;58763;47.982;11.516;2022-10-16T09:29:29;94511.22;;;20.16;62.57
71107;BME280;58763;47.982;11.516;2022-10-16T09:31:55;94507.16;;;20.22;63.57
71107;BME280;58763;47.982;11.516;2022-10-16T09:34:36;94497.69;;;20.31;63.36
71107;BME280;58763;47.982;11.516;2022-10-16T09:37:11;94500.91;;;20.33;62.97
71107;BME280;58763;47.982;11.516;2022-10-16T09:39:49;94504.59;;;20.37;62.08
71107;BME280;58763;47.982;11.516;2022-10-16T09:42:21;94512.03;;;20.37;61.58
71107;BME280;58763;47.982;11.516;2022-10-16T09:44:50;94512.09;;;20.28;61.75
71107;BME280;58763;47.982;11.516;2022-10-16T09:47:25;94518.53;;;20.32;62.04
71107;BME280;58763;47.982;11.516;2022-10-16T09:49:59;94516.81;;;20.40;62.51
71107;BME280;58763;47.982;11.516;2022-10-16T09:52:28;94513.66;;;20.50;62.08
71107;BME280;58763;47.982;11.516;2022-10-16T09:54:56;94513.44;;;20.55;61.92
71107;BME280;58763;47.982;11.516;2022-10-16T09:57:23;94517.34;;;20.66;61.48
71107;BME280;58763;47.982;11.516;2022-10-16T09:59:56;94509.81;;;20.75;60.21
71107;BME280;58763;47.982;11.516;2022-10-16T10:02:36;94518.66;;;20.93;62.66
71107;BME280;58763;47.982;11.516;2022-10-16T10:05:18;94503.22;;;21.00;61.34
71107;BME280;58763;47.982;11.516;2022-10-16T10:07:46;94512.41;;;21.16;61.66
71107;BME280;58763;47.982;11.516;2022-10-16T10:10:29;94515.41;;;21.23;58.14
71107;BME280;58763;47.982;11.516;2022-10-16T10:12:57;94516.63;;;21.38;59.48
71107;BME280;58763;47.982;11.516;2022-10-16T10:15:24;94518.81;;;21.45;57.57
71107;BME280;58763;47.982;11.516;2022-10-16T10:17:52;94510.44;;;21.53;57.38
71107;BME280;58763;47.982;11.516;2022-10-16T10:22:53;94521.41;;;21.77;57.18
71107;BME280;58763;47.982;11.516;2022-10-16T10:28:00;94514.16;;;21.97;56.69
71107;BME280;58763;47.982;11.516;2022-10-16T10:36:10;94513.06;;;22.41;56.15
71107;BME280;58763;47.982;11.516;2022-10-16T10:39:43;94520.34;;;22.61;55.28
71107;BME280;58763;47.982;11.516;2022-10-16T10:47:42;94519.69;;;22.96;54.76
71107;BME280;58763;47.982;11.516;2022-10-16T10:50:25;94513.81;;;23.13;53.72
71107;BME280;58763;47.982;11.516;2022-10-16T10:52:53;94517.44;;;23.32;51.78
71107;BME280;58763;47.982;11.516;2022-10-16T11:00:44;94519.91;;;23.69;51.32
71107;BME280;58763;47.982;11.516;2022-10-16T11:03:35;94515.94;;;23.85;48.67
71107;BME280;58763;47.982;11.516;2022-10-16T11:06:18;94519.22;;;24.07;50.06
71107;BME280;58763;47.982;11.516;2022-10-16T11:08:53;94518.22;;;24.15;48.77
71107;BME280;58763;47.982;11.516;2022-10-16T11:14:11;94507.31;;;24.22;47.50
71107;BME280;58763;47.982;11.516;2022-10-16T11:24:53;94514.84;;;24.44;46.05
71107;BME280;58763;47.982;11.516;2022-10-16T11:27:27;94504.69;;;24.48;45.10
71107;BME280;58763;47.982;11.516;2022-10-16T11:30:00;94510.03;;;24.60;46.17
71107;BME280;58763;47.982;11.516;2022-10-16T11:32:39;94508.72;;;24.73;45.63
71107;BME280;58763;47.982;11.516;2022-10-16T11:35:17;94504.44;;;24.76;41.23
71107;BME280;58763;47.982;11.516;2022-10-16T11:37:46;94505.44;;;24.87;42.05
71107;BME280;58763;47.982;11.516;2022-10-16T11:42:48;94505.63;;;24.97;44.69
71107;BME280;58763;47.982;11.516;2022-10-16T11:45:33;94514.94;;;25.08;44.68
71107;BME280;58763;47.982;11.516;2022-10-16T11:48:21;94507.53;;;25.16;42.28
71107;BME280;58763;47.982;11.516;2022-10-16T11:50:54;94502.13;;;25.23;42.06
71107;BME280;58763;47.982;11.516;2022-10-16T11:53:50;94497.34;;;25.20;41.32
71107;BME280;58763;47.982;11.516;2022-10-16T11:56:20;94492.41;;;25.32;42.41
71107;BME280;58763;47.982;11.516;2022-10-16T11:58:57;94493.47;;;25.24;42.27
71107;BME280;58763;47.982;11.516;2022-10-16T12:01:47;94502.50;;;25.21;42.38
71107;BME280;58763;47.982;11.516;2022-10-16T12:09:32;94493.63;;;25.35;38.17
71107;BME280;58763;47.982;11.516;2022-10-16T12:11:58;94489.97;;;25.27;37.49
71107;BME280;58763;47.982;11.516;2022-10-16T12:14:35;94487.75;;;25.36;37.80
71107;BME280;58763;47.982;11.516;2022-10-16T12:20:42;94491.44;;;25.44;38.58
71107;BME280;58763;47.982;11.516;2022-10-16T12:22:56;94490.16;;;25.41;38.60
71107;BME280;58763;47.982;11.516;2022-10-16T12:25:40;94492.72;;;25.50;38.54
71107;BME280;58763;47.982;11.516;2022-10-16T12:30:41;94492.66;;;25.47;39.69
71107;BME280;58763;47.982;11.516;2022-10-16T12:33:25;94490.75;;;25.51;37.26
71107;BME280;58763;47.982;11.516;2022-10-16T12:35:52;94490.31;;;25.49;37.79
71107;BME280;58763;47.982;11.516;2022-10-16T12:38:26;94490.31;;;25.49;36.48
71107;BME280;58763;47.982;11.516;2022-10-16T12:41:06;94487.06;;;25.43;37.61
71107;BME280;58763;47.982;11.516;2022-10-16T12:43:42;94484.00;;;25.48;35.69
71107;BME280;58763;47.982;11.516;2022-10-16T12:48:34;94484.47;;;25.54;36.19
71107;BME280;58763;47.982;11.516;2022-10-16T12:51:11;94486.38;;;25.50;35.64
71107;BME280;58763;47.982;11.516;2022-10-16T12:53:37;94489.22;;;25.53;36.84
71107;BME280;58763;47.982;11.516;2022-10-16T12:56:21;94486.47;;;25.53;35.21
71107;BME280;58763;47.982;11.516;2022-10-16T13:04:50;94487.22;;;25.54;35.54
71107;BME280;58763;47.982;11.516;2022-10-16T13:10:23;94482.22;;;25.63;36.23
71107;BME280;58763;47.982;11.516;2022-10-16T13:13:16;94479.56;;;25.70;37.54
71107;BME280;58763;47.982;11.516;2022-10-16T13:15:52;94482.78;;;25.72;35.80
71107;BME280;58763;47.982;11.516;2022-10-16T13:18:50;94486.06;;;25.81;36.71
71107;BME280;58763;47.982;11.516;2022-10-16T13:21:52;94477.00;;;25.84;35.29
71107;BME280;58763;47.982;11.516;2022-10-16T13:29:35;94477.88;;;25.88;35.27
71107;BME280;58763;47.982;11.516;2022-10-16T13:32:06;94485.09;;;25.96;34.85
71107;BME280;58763;47.982;11.516;2022-10-16T13:34:32;94488.09;;;26.10;35.31
71107;BME280;58763;47.982;11.516;2022-10-16T13:36:58;94487.84;;;26.22;36.00
71107;BME280;58763;47.982;11.516;2022-10-16T13:39:26;94482.78;;;26.28;34.17
71107;BME280;58763;47.982;11.516;2022-10-16T13:42:25;94479.66;;;26.33;34.95
71107;BME280;58763;47.982;11.516;2022-10-16T13:44:54;94491.63;;;26.40;33.53
71107;BME280;58763;47.982;11.516;2022-10-16T13:47:27;94489.25;;;26.39;33.86
71107;BME280;58763;47.982;11.516;2022-10-16T13:50:05;94489.66;;;26.41;35.05
71107;BME280;58763;47.982;11.516;2022-10-16T13:52:31;94484.59;;;26.46;34.26
71107;BME280;58763;47.982;11.516;2022-10-16T13:54:57;94487.81;;;26.52;33.28
71107;BME280;58763;47.982;11.516;2022-10-16T13:57:24;94482.22;;;26.48;33.45
71107;BME280;58763;47.982;11.516;2022-10-16T13:59:50;94487.09;;;26.58;32.59
71107;BME280;58763;47.982;11.516;2022-10-16T14:04:46;94486.22;;;26.21;33.99
71107;BME280;58763;47.982;11.516;2022-10-16T14:07:29;94489.81;;;26.22;34.18
71107;BME280;58763;47.982;11.516;2022-10-16T14:10:01;94488.13;;;26.14;33.13
71107;BME280;58763;47.982;11.516;2022-10-16T14:12:27;94489.25;;;26.09;33.62
71107;BME280;58763;47.982;11.516;2022-10-16T14:14:54;94496.09;;;26.19;33.55
71107;BME280;58763;47.982;11.516;2022-10-16T14:17:29;94495.25;;;26.15;34.08
71107;BME280;58763;47.982;11.516;2022-10-16T14:19:58;94499.69;;;26.19;34.45
71107;BME280;58763;47.982;11.516;2022-10-16T14:24:55;94500.88;;;26.18;33.56
71107;BME280;58763;47.982;11.516;2022-10-16T14:27:33;94501.94;;;26.10;34.63
71107;BME280;58763;47.982;11.516;2022-10-16T14:32:33;94500.91;;;26.22;34.24
71107;BME280;58763;47.982;11.516;2022-10-16T14:34:59;94496.47;;;26.14;34.91
71107;BME280;58763;47.982;11.516;2022-10-16T14:37:27;94502.28;;;26.08;35.45
71107;BME280;58763;47.982;11.516;2022-10-16T14:39:53;94498.66;;;26.04;34.76
71107;BME280;58763;47.982;11.516;2022-10-16T14:42:21;94498.59;;;25.97;35.05
71107;BME280;58763;47.982;11.516;2022-10-16T14:44:50;94499.56;;;25.86;36.30